Aviation Digital Data Service (ADDS)

Output produced by TAFs form (0904 UTC 30 August 2016)
found at http://aviationweather.gov/adds/tafs/
 
KASE 300534Z 3006/3106 18004KT P6SM FEW100 
     FM301400 00000KT P6SM SCT250 
     FM301900 34006KT P6SM BKN100 
     FM302100 34007KT P6SM VCTS BKN100CB 
     FM310300 19007KT P6SM SCT150